sensor_id;sensor_type;location;lat;lon;timestamp;P1;durP1;ratioP1;P2;durP2;ratioP2
23730;SDS011;12046;44.702;10.622;2023-02-15T00:01:50;44.53;;;24.85;;
23730;SDS011;12046;44.702;10.622;2023-02-15T00:04:18;42.35;;;22.77;;
23730;SDS011;12046;44.702;10.622;2023-02-15T00:06:46;47.67;;;24.45;;
23730;SDS011;12046;44.702;10.622;2023-02-15T00:09:12;47.13;;;25.55;;
23730;SDS011;12046;44.702;10.622;2023-02-15T00:11:38;50.28;;;24.98;;
23730;SDS011;12046;44.702;10.622;2023-02-15T00:14:23;41.00;;;23.23;;
23730;SDS011;12046;44.702;10.622;2023-02-15T00:16:49;45.08;;;25.27;;
23730;SDS011;12046;44.702;10.622;2023-02-15T00:19:17;44.22;;;24.98;;
23730;SDS011;12046;44.702;10.622;2023-02-15T00:21:44;43.80;;;24.52;;
23730;SDS011;12046;44.702;10.622;2023-02-15T00:24:12;44.08;;;24.38;;
23730;SDS011;12046;44.702;10.622;2023-02-15T00:26:40;40.03;;;21.60;;
23730;SDS011;12046;44.702;10.622;2023-02-15T00:29:07;44.38;;;21.90;;
23730;SDS011;12046;44.702;10.622;2023-02-15T00:31:34;41.22;;;22.52;;
23730;SDS011;12046;44.702;10.622;2023-02-15T00:34:04;44.00;;;24.02;;
23730;SDS011;12046;44.702;10.622;2023-02-15T00:36:31;40.50;;;22.45;;
23730;SDS011;12046;44.702;10.622;2023-02-15T00:38:57;41.72;;;23.55;;
23730;SDS011;12046;44.702;10.622;2023-02-15T00:41:23;44.15;;;24.92;;
23730;SDS011;12046;44.702;10.622;2023-02-15T00:43:50;43.10;;;23.20;;
23730;SDS011;12046;44.702;10.622;2023-02-15T00:46:15;41.83;;;23.25;;
23730;SDS011;12046;44.702;10.622;2023-02-15T00:48:41;42.10;;;22.67;;
23730;SDS011;12046;44.702;10.622;2023-02-15T00:51:07;40.78;;;22.83;;
23730;SDS011;12046;44.702;10.622;2023-02-15T00:53:33;39.35;;;23.33;;
23730;SDS011;12046;44.702;10.622;2023-02-15T00:55:59;41.22;;;23.13;;
23730;SDS011;12046;44.702;10.622;2023-02-15T00:58:25;40.83;;;22.67;;
23730;SDS011;12046;44.702;10.622;2023-02-15T01:00:51;41.60;;;21.58;;
23730;SDS011;12046;44.702;10.622;2023-02-15T01:03:18;40.17;;;22.08;;
23730;SDS011;12046;44.702;10.622;2023-02-15T01:05:45;38.45;;;22.80;;
23730;SDS011;12046;44.702;10.622;2023-02-15T01:08:12;45.22;;;23.70;;
23730;SDS011;12046;44.702;10.622;2023-02-15T01:10:38;44.60;;;23.52;;
23730;SDS011;12046;44.702;10.622;2023-02-15T01:13:04;43.78;;;23.30;;
23730;SDS011;12046;44.702;10.622;2023-02-15T01:15:30;44.35;;;23.73;;
23730;SDS011;12046;44.702;10.622;2023-02-15T01:17:58;43.17;;;22.63;;
23730;SDS011;12046;44.702;10.622;2023-02-15T01:20:26;43.25;;;23.75;;
23730;SDS011;12046;44.702;10.622;2023-02-15T01:22:53;42.13;;;23.00;;
23730;SDS011;12046;44.702;10.622;2023-02-15T01:25:20;44.97;;;22.08;;
23730;SDS011;12046;44.702;10.622;2023-02-15T01:27:47;45.55;;;23.88;;
23730;SDS011;12046;44.702;10.622;2023-02-15T01:30:13;48.05;;;24.00;;
23730;SDS011;12046;44.702;10.622;2023-02-15T01:32:40;45.75;;;22.48;;
23730;SDS011;12046;44.702;10.622;2023-02-15T01:35:07;44.13;;;21.70;;
23730;SDS011;12046;44.702;10.622;2023-02-15T01:37:34;42.40;;;21.85;;
23730;SDS011;12046;44.702;10.622;2023-02-15T01:40:01;41.60;;;21.80;;
23730;SDS011;12046;44.702;10.622;2023-02-15T01:42:29;37.15;;;18.80;;
23730;SDS011;12046;44.702;10.622;2023-02-15T01:44:56;39.30;;;21.00;;
23730;SDS011;12046;44.702;10.622;2023-02-15T01:47:32;39.33;;;19.92;;
23730;SDS011;12046;44.702;10.622;2023-02-15T01:50:18;39.78;;;21.20;;
23730;SDS011;12046;44.702;10.622;2023-02-15T01:55:39;40.13;;;20.75;;
23730;SDS011;12046;44.702;10.622;2023-02-15T01:58:07;36.87;;;19.83;;
23730;SDS011;12046;44.702;10.622;2023-02-15T02:00:34;41.42;;;20.50;;
23730;SDS011;12046;44.702;10.622;2023-02-15T02:03:00;41.80;;;22.98;;
23730;SDS011;12046;44.702;10.622;2023-02-15T02:05:28;39.17;;;22.55;;
23730;SDS011;12046;44.702;10.622;2023-02-15T02:07:56;35.65;;;19.92;;
23730;SDS011;12046;44.702;10.622;2023-02-15T02:10:24;36.67;;;19.38;;
23730;SDS011;12046;44.702;10.622;2023-02-15T02:12:52;40.42;;;20.50;;
23730;SDS011;12046;44.702;10.622;2023-02-15T02:15:23;38.40;;;20.33;;
23730;SDS011;12046;44.702;10.622;2023-02-15T02:34:33;35.83;;;19.43;;
23730;SDS011;12046;44.702;10.622;2023-02-15T02:37:19;40.83;;;20.93;;
23730;SDS011;12046;44.702;10.622;2023-02-15T02:42:55;36.13;;;19.17;;
23730;SDS011;12046;44.702;10.622;2023-02-15T02:45:25;37.92;;;20.05;;
23730;SDS011;12046;44.702;10.622;2023-02-15T02:48:06;36.92;;;19.30;;
23730;SDS011;12046;44.702;10.622;2023-02-15T02:50:38;36.88;;;18.52;;
23730;SDS011;12046;44.702;10.622;2023-02-15T02:53:05;34.80;;;18.17;;
23730;SDS011;12046;44.702;10.622;2023-02-15T03:00:29;39.45;;;18.88;;
23730;SDS011;12046;44.702;10.622;2023-02-15T03:03:03;37.83;;;19.75;;
23730;SDS011;12046;44.702;10.622;2023-02-15T03:05:34;37.88;;;19.65;;
23730;SDS011;12046;44.702;10.622;2023-02-15T03:08:03;38.00;;;20.50;;
23730;SDS011;12046;44.702;10.622;2023-02-15T03:10:31;38.80;;;20.52;;
23730;SDS011;12046;44.702;10.622;2023-02-15T03:12:59;40.75;;;19.25;;
23730;SDS011;12046;44.702;10.622;2023-02-15T03:15:26;37.15;;;20.10;;
23730;SDS011;12046;44.702;10.622;2023-02-15T03:18:16;36.10;;;19.90;;
23730;SDS011;12046;44.702;10.622;2023-02-15T03:20:45;39.30;;;20.58;;
23730;SDS011;12046;44.702;10.622;2023-02-15T03:23:16;36.55;;;20.08;;
23730;SDS011;12046;44.702;10.622;2023-02-15T03:25:48;34.97;;;17.33;;
23730;SDS011;12046;44.702;10.622;2023-02-15T03:28:22;36.75;;;19.88;;
23730;SDS011;12046;44.702;10.622;2023-02-15T03:30:53;38.60;;;20.38;;
23730;SDS011;12046;44.702;10.622;2023-02-15T03:33:23;36.35;;;18.63;;
23730;SDS011;12046;44.702;10.622;2023-02-15T03:35:57;38.60;;;19.88;;
23730;SDS011;12046;44.702;10.622;2023-02-15T03:38:33;41.60;;;19.83;;
23730;SDS011;12046;44.702;10.622;2023-02-15T03:41:10;36.55;;;19.02;;
23730;SDS011;12046;44.702;10.622;2023-02-15T03:46:33;37.63;;;19.48;;
23730;SDS011;12046;44.702;10.622;2023-02-15T03:49:41;35.75;;;18.63;;
23730;SDS011;12046;44.702;10.622;2023-02-15T03:52:17;38.20;;;18.42;;
23730;SDS011;12046;44.702;10.622;2023-02-15T03:54:45;34.88;;;19.00;;
23730;SDS011;12046;44.702;10.622;2023-02-15T04:05:45;36.67;;;19.17;;
23730;SDS011;12046;44.702;10.622;2023-02-15T04:08:12;40.17;;;20.80;;
23730;SDS011;12046;44.702;10.622;2023-02-15T04:10:38;33.92;;;18.33;;
23730;SDS011;12046;44.702;10.622;2023-02-15T04:13:29;39.60;;;19.88;;
23730;SDS011;12046;44.702;10.622;2023-02-15T04:15:56;41.95;;;19.58;;
23730;SDS011;12046;44.702;10.622;2023-02-15T04:18:29;37.60;;;19.52;;
23730;SDS011;12046;44.702;10.622;2023-02-15T04:21:15;38.40;;;19.90;;
23730;SDS011;12046;44.702;10.622;2023-02-15T04:24:00;40.63;;;18.80;;
23730;SDS011;12046;44.702;10.622;2023-02-15T04:26:44;39.90;;;18.83;;
23730;SDS011;12046;44.702;10.622;2023-02-15T04:29:12;35.38;;;17.83;;
23730;SDS011;12046;44.702;10.622;2023-02-15T04:31:39;39.63;;;18.70;;
23730;SDS011;12046;44.702;10.622;2023-02-15T04:34:05;39.92;;;21.75;;
23730;SDS011;12046;44.702;10.622;2023-02-15T04:36:31;40.17;;;21.60;;
23730;SDS011;12046;44.702;10.622;2023-02-15T04:38:57;34.90;;;19.13;;
23730;SDS011;12046;44.702;10.622;2023-02-15T04:41:23;35.45;;;18.88;;
23730;SDS011;12046;44.702;10.622;2023-02-15T04:43:48;35.22;;;18.77;;
23730;SDS011;12046;44.702;10.622;2023-02-15T04:46:14;37.00;;;19.80;;
23730;SDS011;12046;44.702;10.622;2023-02-15T04:48:40;39.58;;;19.60;;
23730;SDS011;12046;44.702;10.622;2023-02-15T04:51:06;39.53;;;20.40;;
23730;SDS011;12046;44.702;10.622;2023-02-15T04:53:32;38.97;;;20.10;;
23730;SDS011;12046;44.702;10.622;2023-02-15T04:55:58;35.63;;;19.08;;
23730;SDS011;12046;44.702;10.622;2023-02-15T04:58:24;40.47;;;19.50;;
23730;SDS011;12046;44.702;10.622;2023-02-15T05:00:50;40.88;;;19.77;;
23730;SDS011;12046;44.702;10.622;2023-02-15T05:03:15;35.35;;;18.85;;
23730;SDS011;12046;44.702;10.622;2023-02-15T05:05:42;37.50;;;18.85;;
23730;SDS011;12046;44.702;10.622;2023-02-15T05:08:08;36.28;;;18.65;;
23730;SDS011;12046;44.702;10.622;2023-02-15T05:10:33;37.50;;;19.85;;
23730;SDS011;12046;44.702;10.622;2023-02-15T05:12:59;38.65;;;19.88;;
23730;SDS011;12046;44.702;10.622;2023-02-15T05:15:25;40.42;;;19.38;;
23730;SDS011;12046;44.702;10.622;2023-02-15T05:17:51;37.78;;;18.33;;
23730;SDS011;12046;44.702;10.622;2023-02-15T05:20:16;33.92;;;18.42;;
23730;SDS011;12046;44.702;10.622;2023-02-15T05:22:43;39.67;;;19.17;;
23730;SDS011;12046;44.702;10.622;2023-02-15T05:25:09;36.88;;;17.85;;
23730;SDS011;12046;44.702;10.622;2023-02-15T05:27:53;42.97;;;20.05;;
23730;SDS011;12046;44.702;10.622;2023-02-15T05:30:38;37.05;;;19.50;;
23730;SDS011;12046;44.702;10.622;2023-02-15T05:33:07;38.80;;;19.20;;
23730;SDS011;12046;44.702;10.622;2023-02-15T05:35:34;37.75;;;18.08;;
23730;SDS011;12046;44.702;10.622;2023-02-15T05:38:00;32.83;;;17.42;;
23730;SDS011;12046;44.702;10.622;2023-02-15T05:40:25;36.90;;;18.33;;
23730;SDS011;12046;44.702;10.622;2023-02-15T05:42:51;33.03;;;16.38;;
23730;SDS011;12046;44.702;10.622;2023-02-15T05:45:17;29.85;;;14.95;;
23730;SDS011;12046;44.702;10.622;2023-02-15T05:47:43;30.00;;;15.70;;
23730;SDS011;12046;44.702;10.622;2023-02-15T05:50:09;26.27;;;14.55;;
23730;SDS011;12046;44.702;10.622;2023-02-15T05:52:36;35.25;;;17.20;;
23730;SDS011;12046;44.702;10.622;2023-02-15T05:55:02;32.47;;;17.45;;
23730;SDS011;12046;44.702;10.622;2023-02-15T05:57:29;31.50;;;15.95;;
23730;SDS011;12046;44.702;10.622;2023-02-15T05:59:55;35.53;;;18.02;;
23730;SDS011;12046;44.702;10.622;2023-02-15T06:02:21;29.27;;;15.98;;
23730;SDS011;12046;44.702;10.622;2023-02-15T06:04:46;36.30;;;17.73;;
23730;SDS011;12046;44.702;10.622;2023-02-15T06:07:12;35.42;;;18.60;;
23730;SDS011;12046;44.702;10.622;2023-02-15T06:09:38;30.60;;;16.10;;
23730;SDS011;12046;44.702;10.622;2023-02-15T06:12:04;34.35;;;17.63;;
23730;SDS011;12046;44.702;10.622;2023-02-15T06:14:30;35.00;;;17.67;;
23730;SDS011;12046;44.702;10.622;2023-02-15T06:16:56;33.08;;;17.10;;
23730;SDS011;12046;44.702;10.622;2023-02-15T06:19:21;33.15;;;16.60;;
23730;SDS011;12046;44.702;10.622;2023-02-15T06:21:48;32.33;;;16.50;;
23730;SDS011;12046;44.702;10.622;2023-02-15T06:24:14;30.25;;;15.48;;
23730;SDS011;12046;44.702;10.622;2023-02-15T06:26:40;29.08;;;15.35;;
23730;SDS011;12046;44.702;10.622;2023-02-15T06:29:06;27.58;;;15.13;;
23730;SDS011;12046;44.702;10.622;2023-02-15T06:31:32;32.53;;;16.83;;
23730;SDS011;12046;44.702;10.622;2023-02-15T06:33:58;31.92;;;16.05;;
23730;SDS011;12046;44.702;10.622;2023-02-15T06:36:27;32.38;;;17.00;;
23730;SDS011;12046;44.702;10.622;2023-02-15T06:38:59;31.20;;;16.20;;
23730;SDS011;12046;44.702;10.622;2023-02-15T06:41:25;26.83;;;14.95;;
23730;SDS011;12046;44.702;10.622;2023-02-15T06:43:51;28.23;;;14.88;;
23730;SDS011;12046;44.702;10.622;2023-02-15T06:46:17;28.80;;;14.40;;
23730;SDS011;12046;44.702;10.622;2023-02-15T06:48:42;29.20;;;16.13;;
23730;SDS011;12046;44.702;10.622;2023-02-15T06:51:08;32.58;;;16.42;;
23730;SDS011;12046;44.702;10.622;2023-02-15T06:53:34;31.20;;;16.58;;
23730;SDS011;12046;44.702;10.622;2023-02-15T06:56:04;32.10;;;17.27;;
23730;SDS011;12046;44.702;10.622;2023-02-15T06:58:40;32.33;;;17.80;;
23730;SDS011;12046;44.702;10.622;2023-02-15T07:01:07;37.28;;;18.98;;
23730;SDS011;12046;44.702;10.622;2023-02-15T07:03:34;30.17;;;17.83;;
23730;SDS011;12046;44.702;10.622;2023-02-15T07:06:01;32.50;;;17.73;;
23730;SDS011;12046;44.702;10.622;2023-02-15T07:08:28;31.75;;;17.35;;
23730;SDS011;12046;44.702;10.622;2023-02-15T07:10:55;29.88;;;16.50;;
23730;SDS011;12046;44.702;10.622;2023-02-15T07:13:44;38.08;;;18.88;;
23730;SDS011;12046;44.702;10.622;2023-02-15T07:16:10;30.67;;;16.58;;
23730;SDS011;12046;44.702;10.622;2023-02-15T07:18:36;32.42;;;17.38;;
23730;SDS011;12046;44.702;10.622;2023-02-15T07:21:02;28.83;;;17.13;;
23730;SDS011;12046;44.702;10.622;2023-02-15T07:23:28;31.13;;;16.88;;
23730;SDS011;12046;44.702;10.622;2023-02-15T07:25:57;33.08;;;17.45;;
23730;SDS011;12046;44.702;10.622;2023-02-15T07:28:24;29.92;;;16.00;;
23730;SDS011;12046;44.702;10.622;2023-02-15T07:30:50;29.73;;;17.17;;
23730;SDS011;12046;44.702;10.622;2023-02-15T07:33:16;28.63;;;17.45;;
23730;SDS011;12046;44.702;10.622;2023-02-15T07:35:55;28.67;;;17.25;;
23730;SDS011;12046;44.702;10.622;2023-02-15T07:38:23;28.45;;;16.55;;
23730;SDS011;12046;44.702;10.622;2023-02-15T07:40:50;30.42;;;16.63;;
23730;SDS011;12046;44.702;10.622;2023-02-15T07:43:16;31.23;;;17.25;;
23730;SDS011;12046;44.702;10.622;2023-02-15T07:45:42;29.10;;;17.02;;
23730;SDS011;12046;44.702;10.622;2023-02-15T07:48:08;30.50;;;17.27;;
23730;SDS011;12046;44.702;10.622;2023-02-15T07:50:34;29.45;;;16.73;;
23730;SDS011;12046;44.702;10.622;2023-02-15T07:53:03;29.70;;;16.23;;
23730;SDS011;12046;44.702;10.622;2023-02-15T07:55:29;30.42;;;17.20;;
23730;SDS011;12046;44.702;10.622;2023-02-15T07:57:55;28.23;;;16.55;;
23730;SDS011;12046;44.702;10.622;2023-02-15T08:00:22;29.02;;;17.63;;
23730;SDS011;12046;44.702;10.622;2023-02-15T08:02:53;29.33;;;17.83;;
23730;SDS011;12046;44.702;10.622;2023-02-15T08:05:42;27.13;;;17.27;;
23730;SDS011;12046;44.702;10.622;2023-02-15T08:08:09;29.13;;;17.63;;
23730;SDS011;12046;44.702;10.622;2023-02-15T08:11:00;30.70;;;17.27;;
23730;SDS011;12046;44.702;10.622;2023-02-15T08:14:04;29.08;;;16.83;;
23730;SDS011;12046;44.702;10.622;2023-02-15T08:16:47;24.27;;;15.18;;
23730;SDS011;12046;44.702;10.622;2023-02-15T08:19:21;24.88;;;14.50;;
23730;SDS011;12046;44.702;10.622;2023-02-15T08:21:48;25.05;;;15.07;;
23730;SDS011;12046;44.702;10.622;2023-02-15T08:24:17;22.92;;;14.18;;
23730;SDS011;12046;44.702;10.622;2023-02-15T08:26:47;24.20;;;15.75;;
23730;SDS011;12046;44.702;10.622;2023-02-15T08:29:14;24.13;;;14.80;;
23730;SDS011;12046;44.702;10.622;2023-02-15T08:31:41;23.98;;;15.38;;
23730;SDS011;12046;44.702;10.622;2023-02-15T08:34:08;25.35;;;15.05;;
23730;SDS011;12046;44.702;10.622;2023-02-15T08:36:36;22.88;;;13.23;;
23730;SDS011;12046;44.702;10.622;2023-02-15T08:39:03;21.98;;;13.50;;
23730;SDS011;12046;44.702;10.622;2023-02-15T08:41:31;20.08;;;12.23;;
23730;SDS011;12046;44.702;10.622;2023-02-15T08:44:00;24.17;;;11.77;;
23730;SDS011;12046;44.702;10.622;2023-02-15T08:46:29;19.55;;;12.02;;
23730;SDS011;12046;44.702;10.622;2023-02-15T08:48:57;22.52;;;12.07;;
23730;SDS011;12046;44.702;10.622;2023-02-15T08:51:24;18.52;;;11.77;;
23730;SDS011;12046;44.702;10.622;2023-02-15T08:53:53;28.55;;;13.63;;
23730;SDS011;12046;44.702;10.622;2023-02-15T08:56:21;20.10;;;11.57;;
23730;SDS011;12046;44.702;10.622;2023-02-15T08:58:49;23.15;;;12.32;;
23730;SDS011;12046;44.702;10.622;2023-02-15T09:01:16;20.88;;;12.32;;
23730;SDS011;12046;44.702;10.622;2023-02-15T09:03:45;22.23;;;12.07;;
23730;SDS011;12046;44.702;10.622;2023-02-15T09:06:14;15.90;;;10.73;;
23730;SDS011;12046;44.702;10.622;2023-02-15T09:08:41;17.45;;;10.52;;
23730;SDS011;12046;44.702;10.622;2023-02-15T09:11:15;18.88;;;11.35;;
23730;SDS011;12046;44.702;10.622;2023-02-15T09:13:58;16.08;;;11.45;;
23730;SDS011;12046;44.702;10.622;2023-02-15T09:16:29;17.73;;;10.18;;
23730;SDS011;12046;44.702;10.622;2023-02-15T09:18:57;20.17;;;11.75;;
23730;SDS011;12046;44.702;10.622;2023-02-15T09:21:24;17.70;;;11.55;;
23730;SDS011;12046;44.702;10.622;2023-02-15T09:23:51;22.45;;;12.27;;
23730;SDS011;12046;44.702;10.622;2023-02-15T09:26:22;20.92;;;11.93;;
23730;SDS011;12046;44.702;10.622;2023-02-15T09:39:20;22.42;;;14.50;;
23730;SDS011;12046;44.702;10.622;2023-02-15T09:56:01;30.13;;;22.48;;
23730;SDS011;12046;44.702;10.622;2023-02-15T10:01:39;29.50;;;23.13;;
23730;SDS011;12046;44.702;10.622;2023-02-15T10:04:41;32.88;;;26.50;;
23730;SDS011;12046;44.702;10.622;2023-02-15T10:16:23;35.90;;;27.05;;
23730;SDS011;12046;44.702;10.622;2023-02-15T10:21:55;32.72;;;28.70;;
23730;SDS011;12046;44.702;10.622;2023-02-15T10:27:50;32.97;;;27.52;;
23730;SDS011;12046;44.702;10.622;2023-02-15T10:30:23;35.22;;;31.40;;
23730;SDS011;12046;44.702;10.622;2023-02-15T10:33:04;40.40;;;34.67;;
23730;SDS011;12046;44.702;10.622;2023-02-15T10:35:50;35.90;;;31.77;;
23730;SDS011;12046;44.702;10.622;2023-02-15T10:38:27;37.42;;;32.95;;
23730;SDS011;12046;44.702;10.622;2023-02-15T10:46:11;38.20;;;32.65;;
23730;SDS011;12046;44.702;10.622;2023-02-15T10:48:50;38.30;;;32.05;;
23730;SDS011;12046;44.702;10.622;2023-02-15T10:52:06;36.25;;;31.92;;
23730;SDS011;12046;44.702;10.622;2023-02-15T11:00:52;37.55;;;31.92;;
23730;SDS011;12046;44.702;10.622;2023-02-15T11:03:55;37.92;;;33.75;;
23730;SDS011;12046;44.702;10.622;2023-02-15T11:06:52;36.17;;;32.33;;
23730;SDS011;12046;44.702;10.622;2023-02-15T11:09:22;37.83;;;33.22;;
23730;SDS011;12046;44.702;10.622;2023-02-15T11:11:53;39.55;;;34.47;;
23730;SDS011;12046;44.702;10.622;2023-02-15T11:17:20;36.63;;;32.72;;
23730;SDS011;12046;44.702;10.622;2023-02-15T11:22:30;37.20;;;31.60;;
23730;SDS011;12046;44.702;10.622;2023-02-15T11:24:58;36.38;;;31.58;;
23730;SDS011;12046;44.702;10.622;2023-02-15T11:27:30;36.72;;;32.65;;
23730;SDS011;12046;44.702;10.622;2023-02-15T11:40:42;41.63;;;32.13;;
23730;SDS011;12046;44.702;10.622;2023-02-15T11:43:13;40.85;;;35.30;;
23730;SDS011;12046;44.702;10.622;2023-02-15T11:45:45;40.47;;;33.03;;
23730;SDS011;12046;44.702;10.622;2023-02-15T11:48:12;42.45;;;35.50;;
23730;SDS011;12046;44.702;10.622;2023-02-15T11:50:40;42.53;;;34.35;;
23730;SDS011;12046;44.702;10.622;2023-02-15T11:53:14;41.15;;;34.13;;
23730;SDS011;12046;44.702;10.622;2023-02-15T11:55:43;39.70;;;33.15;;
23730;SDS011;12046;44.702;10.622;2023-02-15T12:00:56;37.63;;;32.22;;
23730;SDS011;12046;44.702;10.622;2023-02-15T12:03:47;39.35;;;29.90;;
23730;SDS011;12046;44.702;10.622;2023-02-15T12:06:22;42.60;;;34.95;;
23730;SDS011;12046;44.702;10.622;2023-02-15T12:08:59;42.83;;;33.57;;
23730;SDS011;12046;44.702;10.622;2023-02-15T12:13:59;47.67;;;33.67;;
23730;SDS011;12046;44.702;10.622;2023-02-15T12:16:28;43.88;;;31.35;;
23730;SDS011;12046;44.702;10.622;2023-02-15T12:21:57;46.78;;;32.50;;
23730;SDS011;12046;44.702;10.622;2023-02-15T12:24:26;44.22;;;33.05;;
23730;SDS011;12046;44.702;10.622;2023-02-15T12:27:16;41.67;;;31.45;;
23730;SDS011;12046;44.702;10.622;2023-02-15T12:29:43;41.10;;;31.88;;
23730;SDS011;12046;44.702;10.622;2023-02-15T12:32:19;44.22;;;32.17;;
23730;SDS011;12046;44.702;10.622;2023-02-15T12:34:50;43.70;;;31.77;;
23730;SDS011;12046;44.702;10.622;2023-02-15T12:37:19;43.05;;;32.22;;
23730;SDS011;12046;44.702;10.622;2023-02-15T12:39:56;42.63;;;31.42;;
23730;SDS011;12046;44.702;10.622;2023-02-15T12:42:24;45.70;;;32.17;;
23730;SDS011;12046;44.702;10.622;2023-02-15T12:44:54;44.38;;;31.13;;
23730;SDS011;12046;44.702;10.622;2023-02-15T12:47:27;49.88;;;31.70;;
23730;SDS011;12046;44.702;10.622;2023-02-15T12:52:45;43.97;;;31.45;;
23730;SDS011;12046;44.702;10.622;2023-02-15T12:58:04;42.17;;;30.00;;
23730;SDS011;12046;44.702;10.622;2023-02-15T13:03:28;43.40;;;30.23;;
23730;SDS011;12046;44.702;10.622;2023-02-15T13:05:55;43.22;;;31.38;;
23730;SDS011;12046;44.702;10.622;2023-02-15T13:08:30;50.88;;;39.88;;
23730;SDS011;12046;44.702;10.622;2023-02-15T13:13:29;47.03;;;32.78;;
23730;SDS011;12046;44.702;10.622;2023-02-15T13:16:09;47.42;;;29.35;;
23730;SDS011;12046;44.702;10.622;2023-02-15T13:18:38;41.20;;;27.48;;
23730;SDS011;12046;44.702;10.622;2023-02-15T13:21:16;36.58;;;25.67;;
23730;SDS011;12046;44.702;10.622;2023-02-15T13:24:05;43.08;;;27.83;;
23730;SDS011;12046;44.702;10.622;2023-02-15T13:27:22;41.35;;;28.08;;
23730;SDS011;12046;44.702;10.622;2023-02-15T13:30:02;40.47;;;29.85;;
23730;SDS011;12046;44.702;10.622;2023-02-15T13:32:38;42.33;;;27.75;;
23730;SDS011;12046;44.702;10.622;2023-02-15T13:35:09;42.30;;;27.88;;
23730;SDS011;12046;44.702;10.622;2023-02-15T13:42:54;45.85;;;34.85;;
23730;SDS011;12046;44.702;10.622;2023-02-15T13:53:33;43.65;;;29.63;;
23730;SDS011;12046;44.702;10.622;2023-02-15T13:56:13;45.78;;;29.63;;
23730;SDS011;12046;44.702;10.622;2023-02-15T14:01:39;43.17;;;28.95;;
23730;SDS011;12046;44.702;10.622;2023-02-15T14:26:07;40.15;;;26.15;;
23730;SDS011;12046;44.702;10.622;2023-02-15T14:31:12;43.55;;;26.70;;
23730;SDS011;12046;44.702;10.622;2023-02-15T14:33:41;38.80;;;25.02;;
23730;SDS011;12046;44.702;10.622;2023-02-15T14:36:16;42.78;;;26.67;;
23730;SDS011;12046;44.702;10.622;2023-02-15T14:46:58;41.08;;;26.75;;
23730;SDS011;12046;44.702;10.622;2023-02-15T14:49:28;37.60;;;28.02;;
23730;SDS011;12046;44.702;10.622;2023-02-15T14:52:00;37.72;;;27.27;;
23730;SDS011;12046;44.702;10.622;2023-02-15T15:02:27;39.00;;;29.10;;
23730;SDS011;12046;44.702;10.622;2023-02-15T15:07:35;53.00;;;30.35;;
23730;SDS011;12046;44.702;10.622;2023-02-15T15:10:05;42.33;;;28.85;;
23730;SDS011;12046;44.702;10.622;2023-02-15T15:12:41;45.22;;;31.27;;
23730;SDS011;12046;44.702;10.622;2023-02-15T15:15:13;50.20;;;30.70;;
23730;SDS011;12046;44.702;10.622;2023-02-15T15:18:04;50.08;;;30.70;;
23730;SDS011;12046;44.702;10.622;2023-02-15T15:20:42;39.63;;;28.60;;
23730;SDS011;12046;44.702;10.622;2023-02-15T15:25:42;40.53;;;29.13;;
23730;SDS011;12046;44.702;10.622;2023-02-15T15:52:23;41.67;;;28.95;;
23730;SDS011;12046;44.702;10.622;2023-02-15T15:54:57;45.78;;;31.00;;
23730;SDS011;12046;44.702;10.622;2023-02-15T15:57:34;45.97;;;30.00;;
23730;SDS011;12046;44.702;10.622;2023-02-15T16:00:04;47.10;;;31.05;;
23730;SDS011;12046;44.702;10.622;2023-02-15T16:02:54;44.03;;;30.55;;
23730;SDS011;12046;44.702;10.622;2023-02-15T16:05:23;47.45;;;29.73;;
23730;SDS011;12046;44.702;10.622;2023-02-15T16:07:49;44.70;;;29.58;;
23730;SDS011;12046;44.702;10.622;2023-02-15T16:10:22;43.30;;;28.52;;
23730;SDS011;12046;44.702;10.622;2023-02-15T16:12:49;50.08;;;30.83;;
23730;SDS011;12046;44.702;10.622;2023-02-15T16:15:17;47.50;;;28.90;;
23730;SDS011;12046;44.702;10.622;2023-02-15T16:17:47;45.38;;;28.08;;
23730;SDS011;12046;44.702;10.622;2023-02-15T16:23:07;48.40;;;29.02;;
23730;SDS011;12046;44.702;10.622;2023-02-15T16:28:17;44.67;;;27.33;;
23730;SDS011;12046;44.702;10.622;2023-02-15T16:30:45;46.40;;;28.15;;
23730;SDS011;12046;44.702;10.622;2023-02-15T16:33:12;47.60;;;28.50;;
23730;SDS011;12046;44.702;10.622;2023-02-15T16:35:55;54.45;;;26.65;;
23730;SDS011;12046;44.702;10.622;2023-02-15T16:41:07;48.08;;;27.58;;
23730;SDS011;12046;44.702;10.622;2023-02-15T16:43:35;46.28;;;26.23;;
23730;SDS011;12046;44.702;10.622;2023-02-15T16:46:05;50.67;;;28.77;;
23730;SDS011;12046;44.702;10.622;2023-02-15T16:48:35;53.22;;;26.27;;
23730;SDS011;12046;44.702;10.622;2023-02-15T16:51:06;53.00;;;27.38;;
23730;SDS011;12046;44.702;10.622;2023-02-15T16:53:34;51.33;;;28.02;;
23730;SDS011;12046;44.702;10.622;2023-02-15T16:56:01;45.78;;;26.10;;
23730;SDS011;12046;44.702;10.622;2023-02-15T16:58:49;49.15;;;27.00;;
23730;SDS011;12046;44.702;10.622;2023-02-15T17:01:16;50.70;;;26.98;;
23730;SDS011;12046;44.702;10.622;2023-02-15T17:03:48;53.15;;;28.17;;
23730;SDS011;12046;44.702;10.622;2023-02-15T17:06:25;49.92;;;29.05;;
23730;SDS011;12046;44.702;10.622;2023-02-15T17:09:02;48.47;;;27.77;;
23730;SDS011;12046;44.702;10.622;2023-02-15T17:11:42;49.08;;;27.50;;
23730;SDS011;12046;44.702;10.622;2023-02-15T17:16:35;47.35;;;27.10;;
23730;SDS011;12046;44.702;10.622;2023-02-15T17:19:33;55.90;;;27.85;;
23730;SDS011;12046;44.702;10.622;2023-02-15T17:22:21;54.03;;;27.80;;
23730;SDS011;12046;44.702;10.622;2023-02-15T17:24:50;44.58;;;26.42;;
23730;SDS011;12046;44.702;10.622;2023-02-15T17:27:24;52.15;;;29.45;;
23730;SDS011;12046;44.702;10.622;2023-02-15T17:29:56;50.63;;;28.83;;
23730;SDS011;12046;44.702;10.622;2023-02-15T17:32:28;52.45;;;28.52;;
23730;SDS011;12046;44.702;10.622;2023-02-15T17:35:00;52.42;;;29.48;;
23730;SDS011;12046;44.702;10.622;2023-02-15T17:40:14;53.70;;;29.48;;
23730;SDS011;12046;44.702;10.622;2023-02-15T17:42:41;47.80;;;28.50;;
23730;SDS011;12046;44.702;10.622;2023-02-15T17:45:07;52.38;;;30.58;;
23730;SDS011;12046;44.702;10.622;2023-02-15T17:47:33;56.88;;;29.95;;
23730;SDS011;12046;44.702;10.622;2023-02-15T17:49:59;54.53;;;28.58;;
23730;SDS011;12046;44.702;10.622;2023-02-15T17:52:34;56.53;;;29.88;;
23730;SDS011;12046;44.702;10.622;2023-02-15T17:55:04;45.43;;;28.27;;
23730;SDS011;12046;44.702;10.622;2023-02-15T17:57:56;51.40;;;28.08;;
23730;SDS011;12046;44.702;10.622;2023-02-15T18:00:22;49.42;;;28.58;;
23730;SDS011;12046;44.702;10.622;2023-02-15T18:05:54;51.90;;;28.20;;
23730;SDS011;12046;44.702;10.622;2023-02-15T18:08:39;51.55;;;29.48;;
23730;SDS011;12046;44.702;10.622;2023-02-15T18:11:23;47.00;;;28.08;;
23730;SDS011;12046;44.702;10.622;2023-02-15T18:14:07;51.40;;;30.40;;
23730;SDS011;12046;44.702;10.622;2023-02-15T18:16:35;54.15;;;29.45;;
23730;SDS011;12046;44.702;10.622;2023-02-15T18:19:04;58.78;;;32.17;;
23730;SDS011;12046;44.702;10.622;2023-02-15T18:21:34;50.60;;;30.95;;
23730;SDS011;12046;44.702;10.622;2023-02-15T18:23:59;57.33;;;31.42;;